Buffalo, OH (43722)

5:29 PM EDT on August 20, 2014 (GMT -0400)
Downtown Cambridge | Change Station
CLOSE
Current Station
Personal Weather Station
Location: Cambridge, OH
Elevation: 876 ft
Nearby Weather Stations

Elev 876 ft 40.03 °N, 81.59 °W | Updated 2 seconds ago

Partly Cloudy
Partly Cloudy
85.0 °F
Feels Like 87 °F
N
6.0
Wind Variable Wind from SSW
Gusts 6.0 mph

Today
High -- | Low -- °F
--% Chance of Precip.
Yesterday
High -- | Low -- °F
Precip. -- in
6:42 AM 8:15 PM
Waning Crescent, 19% visible
Pressure 29.91 in
Visibility 10.0 miles
Clouds Few 4700 ft
Heat Index 87 °F
Dew Point 66 °F
Humidity 53%
Rainfall 0.60 in
Snow Depth Not available.
UV 4 out of 12
Pollen 8.00 out of 12
Air Quality Not available.
Flu Activity Not available.
METAR KZZV 202053Z AUTO 25008KT 10SM FEW047 28/18 A2993 RMK AO2 SLP128 T02830183 58006

More Conditions Fewer Conditions

Pressure 29.91 in
Visibility 10.0 miles
Clouds Few 4700 ft
Heat Index 87 °F
Dew Point 66 °F
Humidity 53%
Rainfall 0.60 in
Snow Depth Not available.
UV 4 out of 12
Pollen 8.00 out of 12
Air Quality Not available.
Flu Activity Not available.
METAR KZZV 202053Z AUTO 25008KT 10SM FEW047 28/18 A2993 RMK AO2 SLP128 T02830183 58006

More Conditions Fewer Conditions

10-Day Weather Forecast

Almanac

Astronomy

Aug. 20, 2014 Rise Set
Actual Time 6:42 AM EDT 8:15 PM EDT
Civil Twilight 6:14 AM EDT 8:44 PM EDT
Nautical Twilight 5:39 AM EDT 9:18 PM EDT
Astronomical Twilight 5:02 AM EDT 9:54 PM EDT
Moon 2:21 AM EDT 4:59 PM EDT
Length of Visible Light 14h 30m
Length of Day
13h 33m
Tomorrow will be 2m 24s shorter.
Waning Crescent, 19% of the Moon is Illuminated
Today
Waning Crescent
Aug 25
New
Sep 2
First Quarter
Sep 8
Full
Sep 15
Last Quarter

Today's Extremes

State Highs State Lows

Community

WunderPhotos

Upload Photos

1,745,763 photos uploaded!

WunderBlogs® & News

Nearby

Snow Depth

Station Depth Elevation
No new snow has been reported.

Earthquake Activity

City Distance Mag. Time & Date
No recent earthquake activity has been reported nearby.
Minimum magnitude displayed is 2.5.

Coastal Water Temperatures

Place Temperature
No Stations Reporting

Nearby Weather Stations